Loughrea, Ireland
Current Conditions -  °F | °C
As of 3:00 PM on Monday 22 Dec 2014 (Local Time) from EINN Reporting Station
Light Rain Light Rain  
Wind Chill: 52°   Ceiling: 800
Heat Index: 52°   Visibility: 2.5mi
Dew Point: 52°   Wind: 28mph
Humidity: 100%   Direction: 220°SW
Pressure: 29.88"   Gusts: NA
Location:  53.2°N, 8.57°W
Report Text: EINN 221500Z 22024KT 4000 -RADZ FEW005 BKN008 OVC012 11/11 Q1012 NOSIG
Loading
Personal Weather Stations






























Interactive Weather Map New forecast layout! Learn more

10-Day Weather Forecast

Advertisements
Track Severe Weather on mobile